createdAt,value
2019-03-08T00:02:51.921Z,10.97
2019-03-08T00:07:54.219Z,10.87
2019-03-08T00:12:56.323Z,10.84
2019-03-08T00:17:58.433Z,10.79
2019-03-08T00:23:00.872Z,10.82
2019-03-08T00:28:02.957Z,10.86
2019-03-08T00:33:05.028Z,11.00
2019-03-08T00:38:07.129Z,11.04
2019-03-08T00:43:09.171Z,11.06
2019-03-08T00:48:11.262Z,11.12
2019-03-08T00:53:13.302Z,11.08
2019-03-08T00:58:15.350Z,10.99
2019-03-08T01:03:17.403Z,11.03
2019-03-08T01:08:19.473Z,11.01
2019-03-08T01:13:21.539Z,10.98
2019-03-08T01:18:23.652Z,11.01
2019-03-08T01:23:25.718Z,10.95
2019-03-08T01:28:28.105Z,10.97
2019-03-08T01:33:30.198Z,10.96
2019-03-08T01:38:32.322Z,10.95
2019-03-08T01:43:34.457Z,10.95
2019-03-08T01:48:36.592Z,10.89
2019-03-08T01:53:38.905Z,10.85
2019-03-08T01:58:41.378Z,10.86
2019-03-08T02:03:43.417Z,10.80
2019-03-08T02:08:45.498Z,10.75
2019-03-08T02:13:47.560Z,10.72
2019-03-08T02:18:51.912Z,10.73
2019-03-08T02:23:54.004Z,10.70
2019-03-08T02:28:56.176Z,10.63
2019-03-08T02:34:00.462Z,10.57
2019-03-08T02:39:04.551Z,10.58
2019-03-08T02:44:06.662Z,10.49
2019-03-08T02:49:08.726Z,10.50
2019-03-08T02:54:10.860Z,10.49
2019-03-08T02:59:15.243Z,10.47
2019-03-08T03:04:17.353Z,10.44
2019-03-08T03:09:19.534Z,10.49
2019-03-08T03:14:21.590Z,10.49
2019-03-08T03:19:23.689Z,10.46
2019-03-08T03:24:25.901Z,10.51
2019-03-08T03:29:28.064Z,10.57
2019-03-08T03:34:32.548Z,10.54
2019-03-08T03:39:34.600Z,10.51
2019-03-08T03:44:36.546Z,10.51
2019-03-08T03:49:38.658Z,10.55
2019-03-08T03:54:40.776Z,10.60
2019-03-08T03:59:42.819Z,10.54
2019-03-08T04:04:44.997Z,10.53
2019-03-08T04:09:47.090Z,10.51
2019-03-08T04:14:49.182Z,10.47
2019-03-08T04:19:53.126Z,10.43
2019-03-08T04:24:55.735Z,10.44
2019-03-08T04:29:57.832Z,10.47
2019-03-08T04:34:59.980Z,10.51
2019-03-08T04:40:02.087Z,10.40
2019-03-08T04:45:04.868Z,10.38
2019-03-08T04:50:08.093Z,10.35
2019-03-08T04:55:11.525Z,10.39
2019-03-08T05:00:15.317Z,10.34
2019-03-08T05:05:17.427Z,10.37
2019-03-08T05:10:19.715Z,10.41
2019-03-08T05:15:21.757Z,10.44
2019-03-08T05:20:23.770Z,10.60
2019-03-08T05:25:25.885Z,10.68
2019-03-08T05:30:28.189Z,10.70
2019-03-08T05:35:30.260Z,10.67
2019-03-08T05:40:32.343Z,10.69
2019-03-08T05:45:34.398Z,10.61
2019-03-08T05:50:36.480Z,10.70
2019-03-08T05:55:38.512Z,10.82
2019-03-08T06:00:40.560Z,10.88
2019-03-08T06:05:44.431Z,10.86
2019-03-08T06:10:46.525Z,10.97
2019-03-08T06:15:48.670Z,11.01
2019-03-08T06:20:50.725Z,11.03
2019-03-08T06:25:52.826Z,11.06
2019-03-08T06:30:54.905Z,11.21
2019-03-08T06:35:56.984Z,11.28
2019-03-08T06:40:59.046Z,11.26
2019-03-08T06:46:01.166Z,11.21
2019-03-08T06:51:03.241Z,11.41
2019-03-08T06:56:05.514Z,11.40
2019-03-08T07:01:10.525Z,11.58
2019-03-08T07:06:12.662Z,11.63
2019-03-08T07:11:14.714Z,11.83
2019-03-08T07:16:16.752Z,12.27
2019-03-08T07:21:26.657Z,12.90
2019-03-08T07:26:39.325Z,13.26
2019-03-08T07:32:12.948Z,13.52
2019-03-08T07:37:33.894Z,13.54
2019-03-08T07:42:54.111Z,13.24
2019-03-08T07:48:14.319Z,13.03
2019-03-08T07:53:23.680Z,12.88
2019-03-08T07:59:00.495Z,12.81
2019-03-08T08:04:37.287Z,12.79
2019-03-08T08:10:01.861Z,12.71
2019-03-08T08:15:27.307Z,12.65
2019-03-08T08:20:51.962Z,12.67
2019-03-08T08:26:31.885Z,12.65
2019-03-08T08:32:11.442Z,12.55
2019-03-08T08:37:22.128Z,12.62
2019-03-08T08:42:33.941Z,12.49
2019-03-08T08:48:01.888Z,12.43
2019-03-08T08:53:11.490Z,12.52
2019-03-08T08:58:38.911Z,12.53
2019-03-08T09:04:12.526Z,12.62
2019-03-08T09:09:37.091Z,12.49
2019-03-08T09:15:09.036Z,12.67
2019-03-08T09:20:30.779Z,12.63
2019-03-08T09:25:55.357Z,12.56
2019-03-08T09:31:32.103Z,12.42
2019-03-08T09:37:02.833Z,12.42
2019-03-08T09:42:27.586Z,12.57
2019-03-08T09:47:42.208Z,12.44
2019-03-08T09:53:03.907Z,12.44
2019-03-08T09:58:31.547Z,12.40
2019-03-08T10:03:58.665Z,12.50
2019-03-08T10:09:29.138Z,12.78
2019-03-08T10:14:57.109Z,13.07
2019-03-08T10:20:09.255Z,13.26
2019-03-08T10:25:31.150Z,13.34
2019-03-08T10:30:43.446Z,13.54
2019-03-08T10:36:25.150Z,13.49
2019-03-08T10:41:35.348Z,13.59
2019-03-08T10:47:06.024Z,13.67
2019-03-08T10:52:21.756Z,14.15
2019-03-08T10:57:40.934Z,14.57
2019-03-08T11:03:02.605Z,14.93
2019-03-08T11:08:29.691Z,14.79
2019-03-08T11:13:48.163Z,14.43
2019-03-08T11:19:09.167Z,14.49
2019-03-08T11:24:33.813Z,14.77
2019-03-08T11:29:57.859Z,15.07
2019-03-08T11:35:28.631Z,15.29
2019-03-08T11:40:57.109Z,15.19
2019-03-08T11:46:08.457Z,15.19
2019-03-08T11:51:38.803Z,14.97
2019-03-08T11:56:59.015Z,14.80
2019-03-08T12:02:38.863Z,14.60
2019-03-08T12:08:01.998Z,14.59
2019-03-08T12:13:21.173Z,14.35
2019-03-08T12:18:45.467Z,14.31
2019-03-08T12:24:07.172Z,14.01
2019-03-08T12:29:14.820Z,13.63
2019-03-08T12:34:42.350Z,13.74
2019-03-08T12:39:52.677Z,13.95
2019-03-08T12:45:14.460Z,14.07
2019-03-08T12:50:22.375Z,14.10
2019-03-08T12:55:35.404Z,14.16
2019-03-08T13:00:50.337Z,14.23
2019-03-08T13:06:00.943Z,14.22
2019-03-08T13:11:02.998Z,14.17
2019-03-08T13:16:05.074Z,14.18
2019-03-08T13:21:07.175Z,14.14
2019-03-08T13:26:09.207Z,14.01
2019-03-08T13:31:11.336Z,13.96
2019-03-08T13:36:13.397Z,13.69
2019-03-08T13:41:15.498Z,13.81
2019-03-08T13:46:17.636Z,13.77
2019-03-08T13:51:19.665Z,13.85
2019-03-08T13:56:21.725Z,13.78
2019-03-08T14:01:23.988Z,13.83
2019-03-08T14:06:26.087Z,13.81
2019-03-08T14:11:28.148Z,13.71
2019-03-08T14:16:30.232Z,13.69
2019-03-08T14:21:32.320Z,13.57
2019-03-08T14:26:34.384Z,13.62
2019-03-08T14:31:45.447Z,13.54
2019-03-08T14:36:46.384Z,13.44
2019-03-08T14:42:23.103Z,13.48
2019-03-08T14:47:33.475Z,13.56
2019-03-08T14:52:35.040Z,13.50
2019-03-08T14:57:37.122Z,13.64
2019-03-08T15:02:39.492Z,13.54
2019-03-08T15:07:42.133Z,13.36
2019-03-08T15:12:49.007Z,13.20
2019-03-08T15:17:49.741Z,13.09
2019-03-08T15:22:52.358Z,12.98
2019-03-08T15:27:54.436Z,12.93
2019-03-08T15:32:56.592Z,12.97
2019-03-08T15:37:58.716Z,12.93
2019-03-08T15:43:00.777Z,12.76
2019-03-08T15:48:03.303Z,12.76
2019-03-08T15:53:05.404Z,12.81
2019-03-08T15:58:09.909Z,12.72
2019-03-08T16:03:12.031Z,12.62
2019-03-08T16:08:14.094Z,12.55
2019-03-08T16:13:16.136Z,12.56
2019-03-08T16:18:20.331Z,12.49
2019-03-08T16:23:22.423Z,12.46
2019-03-08T16:28:24.499Z,12.38
2019-03-08T16:33:35.646Z,12.33
2019-03-08T16:38:57.342Z,12.42
2019-03-08T16:44:15.904Z,12.36
2019-03-08T16:49:24.595Z,12.28
2019-03-08T16:54:44.819Z,12.15
2019-03-08T17:00:09.117Z,12.12
2019-03-08T17:05:29.562Z,12.06
2019-03-08T17:10:51.252Z,12.01
2019-03-08T17:16:11.653Z,11.89
2019-03-08T17:21:48.247Z,11.83
2019-03-08T17:26:56.894Z,11.71
2019-03-08T17:32:17.297Z,11.50
2019-03-08T17:37:33.077Z,11.45
2019-03-08T17:42:53.478Z,11.40
2019-03-08T17:48:07.833Z,11.43
2019-03-08T17:53:28.190Z,11.57
2019-03-08T17:58:48.304Z,11.63
2019-03-08T18:03:56.287Z,11.70
2019-03-08T18:09:10.160Z,11.81
2019-03-08T18:14:32.255Z,11.91
2019-03-08T18:20:02.981Z,11.90
2019-03-08T18:25:14.104Z,11.93
2019-03-08T18:30:38.594Z,11.90
2019-03-08T18:35:55.338Z,11.93
2019-03-08T18:41:09.067Z,11.87
2019-03-08T18:46:30.759Z,11.89
2019-03-08T18:52:01.260Z,11.88
2019-03-08T18:57:17.095Z,11.82
2019-03-08T19:02:30.163Z,11.82
2019-03-08T19:08:10.141Z,11.85
2019-03-08T19:13:32.731Z,11.82
2019-03-08T19:19:09.483Z,11.73
2019-03-08T19:24:22.611Z,11.68
2019-03-08T19:29:49.991Z,11.66
2019-03-08T19:35:05.270Z,11.62
2019-03-08T19:40:36.630Z,11.58
2019-03-08T19:45:58.684Z,11.61
2019-03-08T19:51:35.420Z,11.55
2019-03-08T19:56:55.787Z,11.60
2019-03-08T20:02:15.785Z,11.59
2019-03-08T20:07:43.052Z,11.50
2019-03-08T20:13:00.502Z,11.38
2019-03-08T20:18:37.222Z,11.40
2019-03-08T20:23:46.051Z,11.20
2019-03-08T20:29:02.948Z,10.97
2019-03-08T20:34:15.433Z,10.90
2019-03-08T20:39:27.586Z,10.81
2019-03-08T20:44:37.095Z,10.84
2019-03-08T20:49:39.277Z,10.74
2019-03-08T20:54:41.433Z,10.68
2019-03-08T20:59:43.510Z,10.69
2019-03-08T21:04:45.580Z,10.72
2019-03-08T21:09:47.779Z,10.69
2019-03-08T21:14:49.871Z,10.65
2019-03-08T21:19:52.455Z,10.64
2019-03-08T21:24:54.523Z,10.46
2019-03-08T21:29:56.689Z,10.43
2019-03-08T21:34:58.766Z,10.38
2019-03-08T21:40:00.928Z,10.34
2019-03-08T21:45:03.375Z,10.23
2019-03-08T21:50:06.806Z,10.06
2019-03-08T21:55:09.261Z,10.02
2019-03-08T22:00:13.982Z,10.05
2019-03-08T22:05:20.229Z,10.03
2019-03-08T22:10:41.902Z,10.00
2019-03-08T22:15:43.985Z,9.99
2019-03-08T22:20:46.111Z,9.98
2019-03-08T22:25:48.173Z,9.98
2019-03-08T22:30:50.282Z,10.03
2019-03-08T22:35:52.751Z,10.12
2019-03-08T22:40:57.032Z,10.24
2019-03-08T22:45:59.290Z,10.22
2019-03-08T22:51:01.375Z,10.17
2019-03-08T22:56:03.501Z,10.18
2019-03-08T23:01:11.641Z,10.20
2019-03-08T23:06:13.669Z,10.27
2019-03-08T23:11:15.829Z,10.25
2019-03-08T23:16:17.891Z,10.39
2019-03-08T23:21:20.032Z,10.44
2019-03-08T23:26:22.117Z,10.43
2019-03-08T23:31:40.864Z,10.46
2019-03-08T23:36:42.989Z,10.40
2019-03-08T23:41:45.030Z,10.40
2019-03-08T23:46:47.085Z,10.42
2019-03-08T23:51:49.433Z,10.45
2019-03-08T23:56:51.560Z,10.49
